Time;durP1;ratioP1;P1;durP2;ratioP2;P2;SDS_P1;SDS_P2;PMS_P1;PMS_P2;Temp;Humidity;BMP_temperature;BMP_pressure;BME280_temperature;BME280_humidity;BME280_pressure;Samples;Min_cycle;Max_cycle;Signal;HPM_P1;HPM_P2
2023/03/28 00:02:07;;;;;;;0.73;0.67;;;;;;;;;;5045686;28;20238;-51
2023/03/28 00:04:36;;;;;;;1.57;0.70;;;;;;;;;;5037012;28;20231;-51
2023/03/28 00:07:02;;;;;;;2.13;0.70;;;;;;;;;;5026647;28;20228;-53
2023/03/28 00:09:30;;;;;;;1.30;0.70;;;;;;;;;;5043657;28;20236;-53
2023/03/28 00:11:57;;;;;;;0.70;0.70;;;;;;;;;;5044280;28;20274;-51
2023/03/28 00:14:23;;;;;;;0.70;0.70;;;;;;;;;;5043830;28;20300;-53
2023/03/28 00:16:51;;;;;;;0.60;0.60;;;;;;;;;;5042977;28;20298;-51
2023/03/28 00:19:19;;;;;;;1.17;0.83;;;;;;;;;;5031909;28;20236;-52
2023/03/28 00:21:46;;;;;;;0.60;0.60;;;;;;;;;;5030756;28;20258;-55
2023/03/28 00:24:14;;;;;;;0.60;0.60;;;;;;;;;;5047457;28;20301;-57
2023/03/28 00:26:43;;;;;;;0.40;0.40;;;;;;;;;;5040838;28;20228;-53
2023/03/28 00:29:14;;;;;;;1.83;0.60;;;;;;;;;;5025801;28;20244;-53
2023/03/28 00:31:41;;;;;;;1.43;0.60;;;;;;;;;;5025552;28;20247;-53
2023/03/28 00:34:08;;;;;;;2.30;0.63;;;;;;;;;;5021060;28;20316;-55
2023/03/28 00:36:37;;;;;;;1.60;0.70;;;;;;;;;;5034210;28;20231;-53
2023/03/28 00:39:05;;;;;;;2.43;0.70;;;;;;;;;;5036220;28;20668;-53
2023/03/28 00:41:33;;;;;;;0.80;0.80;;;;;;;;;;5035299;28;20228;-52
2023/03/28 00:44:01;;;;;;;2.63;1.23;;;;;;;;;;5026479;28;20713;-54
2023/03/28 00:46:31;;;;;;;1.00;0.87;;;;;;;;;;5032763;28;20322;-56
2023/03/28 00:48:59;;;;;;;4.40;1.43;;;;;;;;;;5034037;28;20246;-54
2023/03/28 00:51:26;;;;;;;3.43;1.00;;;;;;;;;;5040254;28;20238;-54
2023/03/28 00:53:53;;;;;;;3.53;1.03;;;;;;;;;;5027495;28;20296;-54
2023/03/28 00:56:22;;;;;;;4.33;1.03;;;;;;;;;;5008597;28;20241;-52
2023/03/28 00:58:49;;;;;;;3.23;1.30;;;;;;;;;;5033290;28;20248;-52
2023/03/28 01:01:18;;;;;;;2.90;1.03;;;;;;;;;;5041843;28;20239;-52
2023/03/28 01:03:47;;;;;;;0.83;0.70;;;;;;;;;;5027823;28;20315;-55
2023/03/28 01:06:14;;;;;;;1.03;0.90;;;;;;;;;;5033230;28;20735;-53
2023/03/28 01:08:42;;;;;;;1.90;0.73;;;;;;;;;;5019329;28;20229;-52
2023/03/28 01:11:10;;;;;;;1.87;0.70;;;;;;;;;;5010423;28;20276;-53
2023/03/28 01:13:38;;;;;;;3.80;0.90;;;;;;;;;;5031792;28;20232;-52
2023/03/28 01:16:06;;;;;;;0.77;0.77;;;;;;;;;;5035520;28;20278;-54
2023/03/28 01:18:35;;;;;;;0.70;0.70;;;;;;;;;;5024171;28;20907;-52
2023/03/28 01:21:22;;;;;;;0.57;0.57;;;;;;;;;;5017767;28;20721;-53
2023/03/28 01:24:00;;;;;;;1.00;0.90;;;;;;;;;;5010912;28;20315;-52
2023/03/28 01:26:36;;;;;;;1.70;0.87;;;;;;;;;;5014057;28;20607;-54
2023/03/28 01:29:19;;;;;;;1.53;0.80;;;;;;;;;;5020964;28;20238;-54
2023/03/28 01:32:07;;;;;;;1.70;0.77;;;;;;;;;;5020958;28;20239;-53
2023/03/28 01:34:43;;;;;;;2.00;1.00;;;;;;;;;;5028463;28;20306;-53
2023/03/28 01:37:17;;;;;;;5.23;1.27;;;;;;;;;;5023693;28;20260;-53
2023/03/28 01:39:51;;;;;;;3.43;0.87;;;;;;;;;;5012288;28;20233;-53
2023/03/28 01:42:24;;;;;;;5.67;1.30;;;;;;;;;;5017771;28;20236;-53
2023/03/28 01:44:58;;;;;;;0.83;0.80;;;;;;;;;;5012240;28;20731;-53
2023/03/28 01:47:27;;;;;;;2.20;0.80;;;;;;;;;;5017728;28;20234;-52
2023/03/28 01:50:01;;;;;;;4.40;1.50;;;;;;;;;;5039363;28;20765;-52
2023/03/28 01:52:32;;;;;;;2.30;0.87;;;;;;;;;;5025243;28;20223;-54
2023/03/28 01:55:05;;;;;;;3.47;0.97;;;;;;;;;;5025901;28;20232;-54
2023/03/28 01:57:35;;;;;;;2.90;0.97;;;;;;;;;;5034334;28;20234;-52
2023/03/28 02:00:10;;;;;;;2.97;1.20;;;;;;;;;;5030948;28;20760;-53
2023/03/28 02:02:39;;;;;;;4.30;1.37;;;;;;;;;;5039248;28;20247;-54
2023/03/28 02:05:07;;;;;;;2.70;1.53;;;;;;;;;;5024210;28;20244;-53
2023/03/28 02:07:36;;;;;;;4.30;1.93;;;;;;;;;;5026064;28;20330;-53
2023/03/28 02:10:04;;;;;;;4.97;1.00;;;;;;;;;;5028944;28;20274;-55
2023/03/28 02:12:34;;;;;;;2.53;1.20;;;;;;;;;;5023099;28;20619;-54
2023/03/28 02:15:03;;;;;;;2.77;0.97;;;;;;;;;;5036560;28;20236;-54
2023/03/28 02:17:33;;;;;;;4.87;1.43;;;;;;;;;;5025897;28;20239;-54
2023/03/28 02:20:07;;;;;;;3.23;1.13;;;;;;;;;;5025443;28;20325;-54
2023/03/28 02:22:36;;;;;;;3.20;1.27;;;;;;;;;;5039352;28;20234;-55
2023/03/28 02:25:03;;;;;;;3.23;1.40;;;;;;;;;;5043466;28;20310;-54
2023/03/28 02:27:30;;;;;;;3.23;1.23;;;;;;;;;;5036617;28;20232;-56
2023/03/28 02:29:57;;;;;;;3.93;1.13;;;;;;;;;;5033123;28;20265;-55
2023/03/28 02:32:24;;;;;;;3.10;1.13;;;;;;;;;;5034422;28;20255;-55
2023/03/28 02:34:53;;;;;;;2.30;1.30;;;;;;;;;;5042030;28;20232;-57
2023/03/28 02:37:26;;;;;;;1.20;1.10;;;;;;;;;;5041556;28;20262;-55
2023/03/28 02:40:03;;;;;;;1.43;1.33;;;;;;;;;;5015649;28;20255;-54
2023/03/28 02:43:01;;;;;;;2.50;1.40;;;;;;;;;;5004815;28;20658;-56
2023/03/28 02:45:45;;;;;;;3.47;0.97;;;;;;;;;;5021722;28;20223;-54
2023/03/28 02:48:16;;;;;;;1.37;1.10;;;;;;;;;;5026751;28;20640;-54
2023/03/28 02:50:47;;;;;;;1.53;0.93;;;;;;;;;;5030151;28;20228;-55
2023/03/28 02:53:16;;;;;;;1.40;1.27;;;;;;;;;;5025332;28;20240;-54
2023/03/28 02:55:53;;;;;;;1.07;1.07;;;;;;;;;;5026015;28;20239;-55
2023/03/28 02:58:22;;;;;;;1.50;0.90;;;;;;;;;;5039539;28;20232;-54
2023/03/28 03:00:50;;;;;;;2.37;1.20;;;;;;;;;;5029334;28;20749;-55
2023/03/28 03:03:16;;;;;;;2.20;1.10;;;;;;;;;;5034250;28;20652;-54
2023/03/28 03:05:43;;;;;;;2.17;1.30;;;;;;;;;;5031631;28;20232;-54
2023/03/28 03:08:10;;;;;;;1.47;1.27;;;;;;;;;;5033620;28;20327;-53
2023/03/28 03:10:37;;;;;;;1.30;1.20;;;;;;;;;;5035172;28;20236;-54
2023/03/28 03:13:05;;;;;;;3.83;1.50;;;;;;;;;;5040124;28;20657;-54
2023/03/28 03:15:34;;;;;;;2.43;1.23;;;;;;;;;;5040770;28;20235;-53
2023/03/28 03:18:01;;;;;;;1.27;0.90;;;;;;;;;;5021308;28;20713;-53
2023/03/28 03:20:32;;;;;;;5.23;1.60;;;;;;;;;;5041161;28;20246;-53
2023/03/28 03:22:59;;;;;;;1.33;1.20;;;;;;;;;;5041430;28;20237;-54
2023/03/28 03:25:25;;;;;;;4.07;1.80;;;;;;;;;;5036592;28;20233;-53
2023/03/28 03:27:52;;;;;;;1.37;1.27;;;;;;;;;;5034222;28;20235;-53
2023/03/28 03:30:20;;;;;;;2.90;1.63;;;;;;;;;;5017500;28;20235;-54
2023/03/28 03:32:47;;;;;;;1.47;1.10;;;;;;;;;;5033035;28;20231;-54
2023/03/28 03:35:14;;;;;;;4.40;1.83;;;;;;;;;;5045117;28;20247;-53
2023/03/28 03:37:41;;;;;;;3.77;1.57;;;;;;;;;;5020808;28;20719;-53
2023/03/28 03:40:08;;;;;;;5.07;2.00;;;;;;;;;;5006938;28;20240;-53
2023/03/28 03:42:35;;;;;;;3.73;1.57;;;;;;;;;;5040503;28;20306;-52
2023/03/28 03:45:01;;;;;;;6.30;1.77;;;;;;;;;;5044920;28;20269;-53
2023/03/28 03:47:29;;;;;;;2.93;1.30;;;;;;;;;;5040868;28;20227;-53
2023/03/28 03:49:56;;;;;;;3.83;1.63;;;;;;;;;;5024909;28;20738;-52
2023/03/28 03:52:22;;;;;;;3.50;1.83;;;;;;;;;;5026530;28;20288;-52
2023/03/28 03:54:49;;;;;;;3.83;1.97;;;;;;;;;;5034954;28;20232;-53
2023/03/28 03:57:16;;;;;;;3.90;1.60;;;;;;;;;;5035160;28;20608;-52
2023/03/28 03:59:42;;;;;;;2.73;1.93;;;;;;;;;;5027783;28;20237;-52
2023/03/28 04:02:09;;;;;;;5.37;1.47;;;;;;;;;;5024854;28;20228;-53
2023/03/28 04:04:39;;;;;;;2.40;2.00;;;;;;;;;;5030031;28;20327;-56
2023/03/28 04:07:05;;;;;;;1.57;1.20;;;;;;;;;;5028178;28;20229;-52
2023/03/28 04:09:32;;;;;;;4.73;1.33;;;;;;;;;;5019695;28;20243;-51
2023/03/28 04:11:58;;;;;;;5.07;1.70;;;;;;;;;;5018127;28;20250;-52
2023/03/28 04:14:25;;;;;;;7.73;1.70;;;;;;;;;;5014568;28;20229;-52
2023/03/28 04:16:52;;;;;;;5.20;2.03;;;;;;;;;;5043051;28;20394;-52
2023/03/28 04:19:19;;;;;;;5.07;1.10;;;;;;;;;;5038277;28;20325;-51
2023/03/28 04:21:48;;;;;;;1.70;1.53;;;;;;;;;;5020252;28;20224;-53
2023/03/28 04:24:15;;;;;;;5.50;1.77;;;;;;;;;;5027311;28;20229;-51
2023/03/28 04:26:42;;;;;;;1.03;0.97;;;;;;;;;;5032924;28;20249;-51
2023/03/28 04:29:09;;;;;;;7.73;1.40;;;;;;;;;;5028700;28;20655;-52
2023/03/28 04:31:37;;;;;;;4.13;1.80;;;;;;;;;;5008294;28;20810;-51
2023/03/28 04:34:04;;;;;;;2.47;1.37;;;;;;;;;;5043271;28;20710;-51
2023/03/28 04:36:31;;;;;;;6.93;1.87;;;;;;;;;;5042178;28;20227;-51
2023/03/28 04:39:00;;;;;;;1.90;1.30;;;;;;;;;;5021965;28;20780;-53
2023/03/28 04:41:27;;;;;;;5.23;1.50;;;;;;;;;;5027360;28;20248;-51
2023/03/28 04:43:54;;;;;;;5.13;1.40;;;;;;;;;;5019181;28;20707;-51
2023/03/28 04:46:20;;;;;;;6.50;1.50;;;;;;;;;;5022226;28;20242;-51
2023/03/28 04:48:47;;;;;;;4.37;1.57;;;;;;;;;;5010440;28;20585;-52
2023/03/28 04:51:14;;;;;;;5.30;1.33;;;;;;;;;;5011805;28;20241;-52
2023/03/28 04:53:41;;;;;;;4.77;1.27;;;;;;;;;;5001923;28;20257;-51
2023/03/28 04:56:12;;;;;;;3.70;0.90;;;;;;;;;;5009928;28;20330;-52
2023/03/28 04:58:40;;;;;;;2.00;1.30;;;;;;;;;;5026098;28;20242;-52
2023/03/28 05:01:09;;;;;;;3.40;1.13;;;;;;;;;;5033805;28;20728;-51
2023/03/28 05:03:36;;;;;;;2.40;1.37;;;;;;;;;;5033534;28;20227;-52
2023/03/28 05:06:03;;;;;;;2.47;1.43;;;;;;;;;;5031571;28;20239;-52
2023/03/28 05:08:30;;;;;;;6.33;1.60;;;;;;;;;;5039800;28;20254;-54
2023/03/28 05:10:57;;;;;;;2.43;1.50;;;;;;;;;;5028217;28;20320;-51
2023/03/28 05:13:25;;;;;;;2.10;1.03;;;;;;;;;;5023557;28;20235;-51
2023/03/28 05:15:52;;;;;;;1.40;1.13;;;;;;;;;;5024357;28;20585;-52
2023/03/28 05:18:18;;;;;;;2.10;1.10;;;;;;;;;;5029461;28;20262;-51
2023/03/28 05:20:45;;;;;;;3.87;1.70;;;;;;;;;;5043550;28;20288;-51
2023/03/28 05:23:12;;;;;;;3.43;1.40;;;;;;;;;;5032059;28;20227;-51
2023/03/28 05:25:38;;;;;;;3.23;1.50;;;;;;;;;;5012849;28;20323;-52
2023/03/28 05:28:05;;;;;;;2.10;1.50;;;;;;;;;;5023298;28;20894;-53
2023/03/28 05:30:33;;;;;;;3.13;1.10;;;;;;;;;;5017564;28;20227;-52
2023/03/28 05:32:59;;;;;;;1.73;1.20;;;;;;;;;;5027504;28;20226;-51
2023/03/28 05:35:26;;;;;;;2.70;1.57;;;;;;;;;;5041645;28;20234;-54
2023/03/28 05:37:52;;;;;;;2.67;1.53;;;;;;;;;;5035681;28;20278;-52
2023/03/28 05:40:19;;;;;;;3.50;1.33;;;;;;;;;;5039488;28;20751;-51
2023/03/28 05:42:46;;;;;;;5.63;1.00;;;;;;;;;;5039529;28;20249;-52
2023/03/28 05:45:12;;;;;;;2.13;1.17;;;;;;;;;;5012983;28;20239;-54
2023/03/28 05:47:40;;;;;;;2.87;1.40;;;;;;;;;;5017650;28;21288;-51
2023/03/28 05:50:08;;;;;;;1.27;1.03;;;;;;;;;;5036214;28;20661;-53
2023/03/28 05:52:34;;;;;;;1.97;1.30;;;;;;;;;;5034837;28;20706;-53
2023/03/28 05:55:01;;;;;;;4.33;1.33;;;;;;;;;;5035479;28;20311;-52
2023/03/28 05:57:27;;;;;;;1.13;1.03;;;;;;;;;;5039403;28;20232;-53
2023/03/28 05:59:54;;;;;;;1.57;1.13;;;;;;;;;;5033036;28;20340;-52
2023/03/28 06:02:22;;;;;;;2.83;1.50;;;;;;;;;;5037401;28;20629;-52
2023/03/28 06:04:52;;;;;;;0.90;0.90;;;;;;;;;;5034972;28;20260;-54
2023/03/28 06:07:19;;;;;;;5.03;1.23;;;;;;;;;;5027923;28;20227;-52
2023/03/28 06:09:46;;;;;;;1.87;1.50;;;;;;;;;;5020092;28;20676;-53
2023/03/28 06:12:13;;;;;;;3.17;1.10;;;;;;;;;;5017436;28;20244;-51
2023/03/28 06:14:40;;;;;;;3.30;1.50;;;;;;;;;;5031108;28;20227;-53
2023/03/28 06:17:07;;;;;;;2.37;1.10;;;;;;;;;;5038514;28;20263;-55
2023/03/28 06:19:36;;;;;;;1.30;1.20;;;;;;;;;;5021229;28;20922;-54
2023/03/28 06:22:04;;;;;;;4.23;1.40;;;;;;;;;;5031676;28;20241;-53
2023/03/28 06:24:31;;;;;;;3.10;2.00;;;;;;;;;;5026946;28;20227;-54
2023/03/28 06:26:58;;;;;;;1.97;1.43;;;;;;;;;;5032741;28;20251;-51
2023/03/28 06:29:25;;;;;;;5.20;1.53;;;;;;;;;;5040175;28;20355;-54
2023/03/28 06:31:51;;;;;;;1.70;1.27;;;;;;;;;;5038592;28;20346;-53
2023/03/28 06:34:18;;;;;;;4.10;1.60;;;;;;;;;;5041647;28;20228;-52
2023/03/28 06:36:45;;;;;;;2.10;1.00;;;;;;;;;;5024181;28;20228;-52
2023/03/28 06:39:13;;;;;;;2.37;1.30;;;;;;;;;;5022070;28;20735;-54
2023/03/28 06:41:39;;;;;;;2.57;1.47;;;;;;;;;;5021823;28;20263;-53
2023/03/28 06:44:06;;;;;;;3.10;1.50;;;;;;;;;;5023242;28;20310;-51
2023/03/28 06:46:33;;;;;;;1.23;1.13;;;;;;;;;;5010284;28;20749;-51
2023/03/28 06:49:00;;;;;;;3.10;1.30;;;;;;;;;;5004142;28;20255;-54
2023/03/28 06:51:26;;;;;;;1.97;1.10;;;;;;;;;;5015919;28;20315;-53
2023/03/28 06:53:53;;;;;;;7.60;1.57;;;;;;;;;;5024359;28;20236;-51
2023/03/28 06:56:21;;;;;;;2.60;1.33;;;;;;;;;;5030417;28;20295;-53
2023/03/28 06:58:48;;;;;;;3.60;1.50;;;;;;;;;;5028907;28;20785;-52
2023/03/28 07:01:14;;;;;;;3.70;1.30;;;;;;;;;;5018028;28;20233;-54
2023/03/28 07:03:41;;;;;;;5.13;1.30;;;;;;;;;;5015962;28;20235;-52
2023/03/28 07:06:08;;;;;;;4.17;1.40;;;;;;;;;;5025061;28;20231;-52
2023/03/28 07:08:35;;;;;;;3.30;1.37;;;;;;;;;;5026511;28;20232;-52
2023/03/28 07:11:02;;;;;;;1.80;1.13;;;;;;;;;;5026265;28;20229;-51
2023/03/28 07:13:30;;;;;;;2.90;1.10;;;;;;;;;;5021007;28;20228;-52
2023/03/28 07:16:00;;;;;;;3.40;1.33;;;;;;;;;;5028561;28;20224;-52
2023/03/28 07:18:27;;;;;;;3.37;1.20;;;;;;;;;;5025305;28;20239;-51
2023/03/28 07:20:54;;;;;;;1.37;1.00;;;;;;;;;;5026670;28;20719;-52
2023/03/28 07:23:21;;;;;;;1.13;1.07;;;;;;;;;;5031627;28;20236;-53
2023/03/28 07:25:47;;;;;;;2.53;1.10;;;;;;;;;;5020997;28;20263;-53
2023/03/28 07:28:14;;;;;;;1.43;0.90;;;;;;;;;;5012752;28;20244;-54
2023/03/28 07:30:42;;;;;;;3.20;1.10;;;;;;;;;;5029837;28;20819;-51
2023/03/28 07:33:08;;;;;;;2.43;1.53;;;;;;;;;;5024516;28;20261;-52
2023/03/28 07:35:38;;;;;;;2.80;1.40;;;;;;;;;;5011048;28;20735;-51
2023/03/28 07:38:05;;;;;;;4.57;1.40;;;;;;;;;;5014843;28;20319;-52
2023/03/28 07:40:32;;;;;;;1.67;1.20;;;;;;;;;;5014531;28;20815;-51
2023/03/28 07:42:58;;;;;;;1.70;1.40;;;;;;;;;;5019131;28;20346;-52
2023/03/28 07:45:25;;;;;;;1.30;1.10;;;;;;;;;;5015109;28;20290;-52
2023/03/28 07:47:53;;;;;;;1.83;1.30;;;;;;;;;;5014163;28;21276;-51
2023/03/28 07:50:20;;;;;;;4.17;1.30;;;;;;;;;;5023656;28;20262;-50
2023/03/28 07:52:46;;;;;;;0.80;0.80;;;;;;;;;;5018030;28;20232;-52
2023/03/28 07:55:13;;;;;;;1.63;1.20;;;;;;;;;;5019695;28;20732;-51
2023/03/28 07:57:40;;;;;;;1.30;1.20;;;;;;;;;;5026563;28;20624;-52
2023/03/28 08:00:12;;;;;;;3.27;1.00;;;;;;;;;;4999702;28;20236;-50
2023/03/28 08:02:38;;;;;;;1.67;1.20;;;;;;;;;;5016452;28;20232;-51
2023/03/28 08:05:06;;;;;;;2.00;1.20;;;;;;;;;;5014646;28;20246;-52
2023/03/28 08:07:33;;;;;;;1.70;0.90;;;;;;;;;;5016458;28;20236;-51
2023/03/28 08:10:00;;;;;;;2.77;0.83;;;;;;;;;;5012565;28;20259;-51
2023/03/28 08:12:26;;;;;;;2.07;1.20;;;;;;;;;;5010013;28;21011;-52
2023/03/28 08:14:53;;;;;;;0.97;0.93;;;;;;;;;;5011874;28;20241;-51
2023/03/28 08:17:20;;;;;;;2.30;1.30;;;;;;;;;;5018510;28;20238;-51
2023/03/28 08:19:46;;;;;;;2.20;0.90;;;;;;;;;;5026211;28;20236;-52
2023/03/28 08:22:15;;;;;;;2.80;1.10;;;;;;;;;;5031646;28;20232;-52
2023/03/28 08:24:42;;;;;;;2.30;1.00;;;;;;;;;;5020307;28;20240;-51
2023/03/28 08:27:09;;;;;;;4.20;1.40;;;;;;;;;;5031380;28;20326;-51
2023/03/28 08:29:35;;;;;;;1.83;1.20;;;;;;;;;;5024076;28;20242;-51
2023/03/28 08:32:05;;;;;;;2.20;0.83;;;;;;;;;;5020585;28;20235;-51
2023/03/28 08:34:32;;;;;;;3.37;0.97;;;;;;;;;;5023955;28;20240;-52
2023/03/28 08:36:58;;;;;;;1.73;1.03;;;;;;;;;;5011875;28;20233;-52
2023/03/28 08:39:26;;;;;;;1.70;1.07;;;;;;;;;;5025963;28;20254;-51
2023/03/28 08:42:05;;;;;;;1.33;0.80;;;;;;;;;;5016449;28;20243;-51
2023/03/28 08:44:46;;;;;;;2.00;1.00;;;;;;;;;;5013022;28;20977;-52
2023/03/28 08:47:15;;;;;;;2.70;0.80;;;;;;;;;;4974573;28;20313;-52
2023/03/28 08:49:44;;;;;;;0.97;0.73;;;;;;;;;;5011034;28;20246;-51
2023/03/28 08:52:12;;;;;;;1.13;0.80;;;;;;;;;;5014757;28;20750;-50
2023/03/28 08:54:43;;;;;;;2.60;1.00;;;;;;;;;;5019829;28;20705;-50
2023/03/28 08:57:13;;;;;;;3.73;1.33;;;;;;;;;;5020971;28;20235;-50
2023/03/28 08:59:42;;;;;;;4.27;1.00;;;;;;;;;;5021232;28;20233;-51
2023/03/28 09:02:15;;;;;;;0.57;0.50;;;;;;;;;;4999616;28;20239;-52
2023/03/28 09:04:42;;;;;;;4.00;1.03;;;;;;;;;;4999491;28;20225;-51
2023/03/28 09:07:16;;;;;;;2.50;0.80;;;;;;;;;;5001083;28;20233;-51
2023/03/28 09:09:49;;;;;;;0.80;0.80;;;;;;;;;;5018238;28;20766;-51
2023/03/28 09:12:24;;;;;;;0.80;0.80;;;;;;;;;;5021153;28;20778;-52
2023/03/28 09:15:06;;;;;;;2.20;0.87;;;;;;;;;;5022536;28;20238;-52
2023/03/28 09:17:37;;;;;;;1.27;0.90;;;;;;;;;;5031791;28;20804;-51
2023/03/28 09:20:10;;;;;;;2.20;0.70;;;;;;;;;;5024883;28;20337;-51
2023/03/28 09:22:40;;;;;;;1.00;0.77;;;;;;;;;;5021601;28;20235;-51
2023/03/28 09:25:14;;;;;;;1.20;0.90;;;;;;;;;;5034470;28;20231;-51
2023/03/28 09:27:46;;;;;;;1.20;0.70;;;;;;;;;;5014051;28;20243;-51
2023/03/28 09:30:17;;;;;;;4.10;0.97;;;;;;;;;;5022688;28;20267;-52
2023/03/28 09:32:44;;;;;;;0.80;0.80;;;;;;;;;;5016146;28;20281;-52
2023/03/28 09:35:15;;;;;;;1.23;0.70;;;;;;;;;;5012767;28;20244;-51
2023/03/28 09:37:42;;;;;;;3.30;0.80;;;;;;;;;;5018776;28;20235;-52
2023/03/28 09:40:16;;;;;;;5.10;0.97;;;;;;;;;;5004078;28;20246;-51
2023/03/28 09:42:47;;;;;;;0.80;0.80;;;;;;;;;;5013542;28;20719;-51
2023/03/28 09:45:23;;;;;;;0.50;0.50;;;;;;;;;;5023618;28;20231;-51
2023/03/28 09:47:50;;;;;;;0.60;0.60;;;;;;;;;;5014933;28;20285;-51
2023/03/28 09:50:17;;;;;;;1.00;0.60;;;;;;;;;;5018546;28;20236;-51
2023/03/28 09:52:44;;;;;;;0.70;0.70;;;;;;;;;;4998172;28;20228;-51
2023/03/28 09:55:16;;;;;;;0.87;0.50;;;;;;;;;;5014096;28;20695;-51
2023/03/28 09:57:58;;;;;;;0.70;0.70;;;;;;;;;;5008799;28;20253;-51
2023/03/28 10:00:25;;;;;;;2.07;0.93;;;;;;;;;;5015698;28;20323;-52
2023/03/28 10:02:52;;;;;;;0.80;0.80;;;;;;;;;;5014457;28;20233;-52
2023/03/28 10:05:31;;;;;;;0.80;0.80;;;;;;;;;;5020704;28;20776;-52
2023/03/28 10:07:58;;;;;;;0.70;0.70;;;;;;;;;;5021757;28;20236;-51
2023/03/28 10:10:27;;;;;;;0.73;0.60;;;;;;;;;;5027535;28;20293;-51
2023/03/28 10:12:56;;;;;;;1.73;0.97;;;;;;;;;;5035964;28;20232;-51
2023/03/28 10:15:30;;;;;;;0.70;0.70;;;;;;;;;;5036244;28;20339;-51
2023/03/28 10:17:59;;;;;;;0.93;0.87;;;;;;;;;;5027270;28;20242;-51
2023/03/28 10:20:25;;;;;;;1.40;1.03;;;;;;;;;;5040409;28;20259;-51
2023/03/28 10:22:54;;;;;;;1.00;0.90;;;;;;;;;;5029432;28;20997;-51
2023/03/28 10:25:22;;;;;;;0.70;0.70;;;;;;;;;;5024898;28;20302;-51
2023/03/28 10:27:51;;;;;;;1.40;0.70;;;;;;;;;;5024490;28;20242;-51
2023/03/28 10:30:21;;;;;;;1.63;0.80;;;;;;;;;;5023908;28;20298;-51
2023/03/28 10:33:07;;;;;;;5.17;0.70;;;;;;;;;;5021066;28;20235;-52
2023/03/28 10:35:34;;;;;;;2.00;0.87;;;;;;;;;;5024097;28;20231;-51
2023/03/28 10:38:03;;;;;;;0.70;0.60;;;;;;;;;;5023831;28;20231;-51
2023/03/28 10:40:30;;;;;;;1.57;1.47;;;;;;;;;;5026208;28;20232;-51
2023/03/28 10:42:59;;;;;;;0.73;0.53;;;;;;;;;;5027160;28;20237;-51
2023/03/28 10:45:32;;;;;;;0.70;0.70;;;;;;;;;;5008073;28;20315;-51
2023/03/28 10:48:00;;;;;;;1.43;0.63;;;;;;;;;;5012821;28;20225;-51
2023/03/28 10:50:29;;;;;;;1.03;0.80;;;;;;;;;;5012735;28;20320;-51
2023/03/28 10:53:09;;;;;;;1.33;0.80;;;;;;;;;;5024169;28;20351;-51
2023/03/28 10:55:39;;;;;;;0.60;0.60;;;;;;;;;;5022583;28;20237;-51
2023/03/28 10:58:10;;;;;;;1.90;1.37;;;;;;;;;;5031794;28;20607;-51
2023/03/28 11:00:39;;;;;;;0.70;0.70;;;;;;;;;;5018083;28;20241;-51
2023/03/28 11:03:10;;;;;;;1.57;0.97;;;;;;;;;;5027772;28;20241;-51
2023/03/28 11:05:42;;;;;;;1.83;0.70;;;;;;;;;;5023116;28;20248;-51
2023/03/28 11:08:22;;;;;;;0.80;0.77;;;;;;;;;;5020582;28;20235;-51
2023/03/28 11:10:56;;;;;;;0.90;0.80;;;;;;;;;;5019572;28;20315;-50
2023/03/28 11:13:27;;;;;;;0.60;0.60;;;;;;;;;;5017842;28;20236;-51
2023/03/28 11:15:57;;;;;;;2.60;1.10;;;;;;;;;;5018917;28;20234;-50
2023/03/28 11:18:31;;;;;;;1.80;0.80;;;;;;;;;;5017617;28;20241;-51
2023/03/28 11:21:05;;;;;;;0.60;0.60;;;;;;;;;;5021212;28;20857;-51
2023/03/28 11:23:43;;;;;;;1.27;1.17;;;;;;;;;;5023545;28;20313;-51
2023/03/28 11:26:12;;;;;;;2.87;1.17;;;;;;;;;;5016583;28;20244;-53
2023/03/28 11:28:54;;;;;;;1.80;0.97;;;;;;;;;;5026753;28;20844;-51
2023/03/28 11:31:24;;;;;;;2.97;0.60;;;;;;;;;;5018609;28;20230;-51
2023/03/28 11:33:56;;;;;;;1.50;0.70;;;;;;;;;;5031636;28;20228;-52
2023/03/28 11:36:25;;;;;;;0.87;0.87;;;;;;;;;;5007658;28;20406;-50
2023/03/28 11:38:54;;;;;;;0.80;0.80;;;;;;;;;;5012578;28;20249;-52
2023/03/28 11:41:22;;;;;;;1.23;0.80;;;;;;;;;;5019684;28;20243;-51
2023/03/28 11:43:53;;;;;;;1.20;0.77;;;;;;;;;;5034487;28;20293;-51
2023/03/28 11:46:22;;;;;;;2.37;1.00;;;;;;;;;;5030170;28;20593;-51
2023/03/28 11:48:53;;;;;;;0.70;0.70;;;;;;;;;;5028788;28;20236;-51
2023/03/28 11:51:23;;;;;;;0.60;0.60;;;;;;;;;;5024888;28;20230;-51
2023/03/28 11:53:53;;;;;;;0.57;0.57;;;;;;;;;;5009515;28;20231;-51
2023/03/28 11:56:26;;;;;;;1.20;0.60;;;;;;;;;;5024326;28;20243;-50
2023/03/28 11:58:56;;;;;;;3.33;0.97;;;;;;;;;;5026872;28;20617;-50
2023/03/28 12:01:24;;;;;;;3.87;1.17;;;;;;;;;;5029264;28;20307;-50
2023/03/28 12:03:55;;;;;;;2.20;0.57;;;;;;;;;;5033143;28;20231;-51
2023/03/28 12:06:25;;;;;;;0.80;0.73;;;;;;;;;;5020737;28;20240;-50
2023/03/28 12:08:56;;;;;;;1.07;0.80;;;;;;;;;;5036335;28;20255;-51
2023/03/28 12:11:26;;;;;;;2.83;0.87;;;;;;;;;;5028633;28;20241;-51
2023/03/28 12:13:57;;;;;;;0.43;0.43;;;;;;;;;;5024201;28;20235;-51
2023/03/28 12:16:27;;;;;;;0.50;0.50;;;;;;;;;;5030275;28;20298;-52
2023/03/28 12:18:57;;;;;;;2.00;0.50;;;;;;;;;;5023978;28;20232;-52
2023/03/28 12:21:27;;;;;;;1.07;0.57;;;;;;;;;;5025794;28;20240;-53
2023/03/28 12:24:00;;;;;;;0.60;0.60;;;;;;;;;;5026763;28;20252;-50
2023/03/28 12:26:29;;;;;;;0.70;0.50;;;;;;;;;;5026041;28;20327;-49
2023/03/28 12:28:59;;;;;;;0.57;0.57;;;;;;;;;;5037398;28;20318;-51
2023/03/28 12:31:28;;;;;;;1.30;0.83;;;;;;;;;;5028346;28;20299;-49
2023/03/28 12:33:57;;;;;;;0.50;0.50;;;;;;;;;;5025659;28;20372;-49
2023/03/28 12:36:27;;;;;;;0.57;0.57;;;;;;;;;;5024455;28;20304;-50
2023/03/28 12:38:57;;;;;;;1.60;0.70;;;;;;;;;;5024015;28;20245;-51
2023/03/28 12:41:25;;;;;;;1.30;0.70;;;;;;;;;;5031599;28;20240;-50
2023/03/28 12:43:54;;;;;;;1.43;1.10;;;;;;;;;;5036887;28;20228;-50
2023/03/28 12:46:24;;;;;;;1.13;0.80;;;;;;;;;;5029468;28;20236;-52
2023/03/28 12:48:53;;;;;;;1.07;0.83;;;;;;;;;;5026092;28;20273;-52
2023/03/28 12:51:24;;;;;;;0.97;0.70;;;;;;;;;;5033139;28;20286;-50
2023/03/28 12:54:00;;;;;;;1.00;1.00;;;;;;;;;;5041067;28;20327;-50
2023/03/28 12:56:26;;;;;;;0.53;0.53;;;;;;;;;;5024063;28;20254;-51
2023/03/28 12:58:53;;;;;;;2.40;0.80;;;;;;;;;;5027804;28;20637;-51
2023/03/28 13:01:32;;;;;;;0.67;0.60;;;;;;;;;;5027352;28;20244;-51
2023/03/28 13:04:02;;;;;;;1.10;0.73;;;;;;;;;;5033712;28;20239;-50
2023/03/28 13:06:36;;;;;;;0.70;0.70;;;;;;;;;;5016438;28;20256;-51
2023/03/28 13:09:24;;;;;;;3.10;0.57;;;;;;;;;;5029790;28;20709;-49
2023/03/28 13:11:55;;;;;;;0.50;0.50;;;;;;;;;;5021554;28;20772;-50
2023/03/28 13:14:30;;;;;;;0.60;0.50;;;;;;;;;;5016430;28;20879;-50
2023/03/28 13:16:59;;;;;;;1.20;0.83;;;;;;;;;;5018515;28;20699;-50
2023/03/28 13:19:38;;;;;;;1.33;1.00;;;;;;;;;;5015727;28;20228;-50
2023/03/28 13:22:05;;;;;;;2.10;1.43;;;;;;;;;;5026458;28;20317;-50
2023/03/28 13:24:33;;;;;;;0.67;0.67;;;;;;;;;;5035708;28;20225;-49
2023/03/28 13:27:00;;;;;;;1.50;0.60;;;;;;;;;;5020275;28;20225;-51
2023/03/28 13:29:43;;;;;;;0.77;0.67;;;;;;;;;;5025768;28;20584;-49
2023/03/28 13:32:14;;;;;;;1.63;0.90;;;;;;;;;;5021657;28;20231;-51
2023/03/28 13:34:46;;;;;;;0.60;0.60;;;;;;;;;;5023291;28;20267;-52
2023/03/28 13:37:20;;;;;;;1.17;0.87;;;;;;;;;;5028149;28;20256;-52
2023/03/28 13:39:50;;;;;;;4.90;1.30;;;;;;;;;;5023145;28;20278;-51
2023/03/28 13:42:26;;;;;;;0.57;0.57;;;;;;;;;;5014290;28;20306;-50
2023/03/28 13:44:53;;;;;;;1.53;1.43;;;;;;;;;;5010762;28;20236;-51
2023/03/28 13:47:26;;;;;;;0.57;0.57;;;;;;;;;;5013127;28;20256;-50
2023/03/28 13:49:57;;;;;;;0.60;0.60;;;;;;;;;;5014819;28;20237;-51
2023/03/28 13:52:24;;;;;;;1.17;0.60;;;;;;;;;;5028357;28;20236;-50
2023/03/28 13:54:53;;;;;;;0.83;0.60;;;;;;;;;;5014488;28;20315;-51
2023/03/28 13:57:21;;;;;;;1.23;0.80;;;;;;;;;;5012994;28;20903;-51
2023/03/28 13:59:51;;;;;;;1.10;0.67;;;;;;;;;;5010493;28;20253;-51
2023/03/28 14:02:19;;;;;;;1.23;1.13;;;;;;;;;;5020505;28;20232;-51
2023/03/28 14:04:52;;;;;;;0.80;0.80;;;;;;;;;;5027715;28;20242;-51
2023/03/28 14:07:23;;;;;;;0.70;0.70;;;;;;;;;;5027422;28;20224;-50
2023/03/28 14:09:50;;;;;;;0.87;0.63;;;;;;;;;;5024941;28;20286;-52
2023/03/28 14:12:17;;;;;;;0.93;0.80;;;;;;;;;;5028015;28;20646;-51
2023/03/28 14:14:45;;;;;;;0.73;0.73;;;;;;;;;;5022193;28;20228;-51
2023/03/28 14:17:13;;;;;;;1.30;0.50;;;;;;;;;;5001231;28;20245;-51
2023/03/28 14:19:41;;;;;;;0.70;0.70;;;;;;;;;;5001508;28;20228;-52
2023/03/28 14:22:13;;;;;;;1.07;0.80;;;;;;;;;;5008067;28;20327;-53
2023/03/28 14:24:40;;;;;;;0.80;0.80;;;;;;;;;;5016045;28;20286;-53
2023/03/28 14:27:07;;;;;;;1.10;1.00;;;;;;;;;;5003237;28;20237;-51
2023/03/28 14:29:34;;;;;;;0.50;0.50;;;;;;;;;;5012360;28;20244;-50
2023/03/28 14:32:02;;;;;;;0.57;0.57;;;;;;;;;;5020827;28;20315;-50
2023/03/28 14:34:31;;;;;;;2.27;1.00;;;;;;;;;;5026584;28;20229;-50
2023/03/28 14:36:59;;;;;;;0.83;0.80;;;;;;;;;;5021587;28;20228;-53
2023/03/28 14:39:28;;;;;;;1.33;0.90;;;;;;;;;;5020433;28;20237;-50
2023/03/28 14:41:55;;;;;;;0.50;0.50;;;;;;;;;;5010008;28;20236;-52
2023/03/28 14:44:22;;;;;;;1.33;0.60;;;;;;;;;;5017993;28;20239;-52
2023/03/28 14:46:49;;;;;;;1.13;0.80;;;;;;;;;;5015321;28;20798;-50
2023/03/28 14:49:18;;;;;;;0.40;0.40;;;;;;;;;;5028554;28;20237;-52
2023/03/28 14:51:45;;;;;;;0.83;0.60;;;;;;;;;;5028981;28;20801;-50
2023/03/28 14:54:14;;;;;;;0.80;0.70;;;;;;;;;;5016547;28;20253;-51
2023/03/28 14:56:43;;;;;;;0.70;0.60;;;;;;;;;;5030999;28;20232;-51